createdAt,value
2018-05-25T00:00:05.640Z,980.78
2018-05-25T00:01:05.539Z,980.81
2018-05-25T00:02:06.081Z,981.01
2018-05-25T00:03:05.963Z,980.96
2018-05-25T00:04:05.736Z,981.01
2018-05-25T00:05:05.552Z,980.96
2018-05-25T00:06:06.056Z,981.01
2018-05-25T00:07:05.451Z,981.07
2018-05-25T00:08:05.580Z,980.93
2018-05-25T00:09:05.764Z,980.87
2018-05-25T00:10:05.709Z,980.93
2018-05-25T00:11:05.971Z,980.93
2018-05-25T00:12:05.849Z,980.81
2018-05-25T00:13:05.311Z,980.87
2018-05-25T00:14:05.478Z,980.78
2018-05-25T00:15:05.230Z,980.93
2018-05-25T00:16:05.623Z,980.87
2018-05-25T00:17:06.457Z,980.99
2018-05-25T00:18:06.094Z,980.84
2018-05-25T00:19:05.719Z,980.84
2018-05-25T00:20:05.762Z,980.90
2018-05-25T00:21:05.861Z,980.90
2018-05-25T00:22:05.819Z,981.01
2018-05-25T00:23:05.539Z,980.96
2018-05-25T00:24:05.097Z,981.04
2018-05-25T00:25:05.222Z,980.93
2018-05-25T00:26:05.804Z,981.07
2018-05-25T00:27:05.503Z,980.99
2018-05-25T00:28:05.747Z,981.01
2018-05-25T00:29:05.451Z,980.99
2018-05-25T00:30:05.499Z,981.04
2018-05-25T00:31:05.140Z,980.96
2018-05-25T00:32:05.931Z,981.10
2018-05-25T00:33:05.697Z,981.04
2018-05-25T00:34:05.139Z,981.01
2018-05-25T00:35:05.375Z,980.96
2018-05-25T00:36:05.403Z,980.90
2018-05-25T00:37:05.255Z,980.96
2018-05-25T00:38:05.174Z,980.99
2018-05-25T00:39:05.205Z,981.10
2018-05-25T00:40:05.797Z,980.90
2018-05-25T00:41:05.690Z,980.99
2018-05-25T00:42:05.430Z,980.99
2018-05-25T00:43:05.395Z,980.96
2018-05-25T00:44:05.592Z,980.84
2018-05-25T00:45:05.401Z,980.96
2018-05-25T00:46:05.336Z,980.96
2018-05-25T00:47:06.067Z,980.90
2018-05-25T00:48:05.973Z,981.04
2018-05-25T00:49:05.783Z,980.90
2018-05-25T00:50:06.220Z,980.99
2018-05-25T00:51:05.376Z,980.96
2018-05-25T00:52:10.417Z,980.90
2018-05-25T00:53:05.443Z,980.81
2018-05-25T00:54:05.482Z,980.84
2018-05-25T00:55:05.505Z,980.93
2018-05-25T00:56:06.059Z,980.93
2018-05-25T00:57:05.028Z,980.96
2018-05-25T00:58:06.058Z,980.93
2018-05-25T00:59:05.943Z,980.87
2018-05-25T01:00:06.159Z,980.90
2018-05-25T01:01:11.065Z,980.79
2018-05-25T01:02:06.395Z,980.90
2018-05-25T01:03:05.301Z,980.85
2018-05-25T01:04:05.610Z,980.85
2018-05-25T01:05:05.682Z,980.96
2018-05-25T01:06:05.934Z,980.73
2018-05-25T01:07:05.998Z,980.79
2018-05-25T01:08:05.986Z,980.79
2018-05-25T01:09:05.165Z,980.79
2018-05-25T01:10:05.016Z,980.79
2018-05-25T01:11:05.252Z,980.73
2018-05-25T01:12:05.889Z,980.70
2018-05-25T01:13:05.677Z,980.73
2018-05-25T01:14:05.551Z,980.73
2018-05-25T01:15:05.267Z,980.62
2018-05-25T01:16:05.166Z,980.73
2018-05-25T01:17:05.412Z,980.70
2018-05-25T01:18:05.941Z,980.73
2018-05-25T01:19:05.406Z,980.82
2018-05-25T01:20:05.588Z,980.73
2018-05-25T01:21:05.889Z,980.73
2018-05-25T01:22:05.178Z,980.65
2018-05-25T01:23:05.469Z,980.62
2018-05-25T01:24:05.092Z,980.70
2018-05-25T01:25:05.692Z,980.76
2018-05-25T01:26:10.725Z,980.67
2018-05-25T01:27:06.988Z,980.65
2018-05-25T01:28:06.093Z,980.73
2018-05-25T01:29:06.229Z,980.64
2018-05-25T01:30:05.895Z,980.70
2018-05-25T01:31:05.850Z,980.67
2018-05-25T01:32:05.937Z,980.70
2018-05-25T01:33:05.880Z,980.70
2018-05-25T01:34:05.479Z,980.67
2018-05-25T01:35:05.405Z,980.56
2018-05-25T01:36:05.395Z,980.65
2018-05-25T01:37:05.159Z,980.62
2018-05-25T01:38:05.960Z,980.56
2018-05-25T01:39:05.560Z,980.67
2018-05-25T01:40:05.439Z,980.67
2018-05-25T01:41:06.429Z,980.67
2018-05-25T01:42:05.291Z,980.62
2018-05-25T01:43:05.254Z,980.79
2018-05-25T01:44:05.937Z,980.62
2018-05-25T01:45:06.060Z,980.70
2018-05-25T01:46:05.049Z,980.53
2018-05-25T01:47:05.836Z,980.64
2018-05-25T01:48:05.582Z,980.73
2018-05-25T01:49:05.359Z,980.62
2018-05-25T01:50:05.591Z,980.59
2018-05-25T01:51:05.325Z,980.70
2018-05-25T01:52:05.760Z,980.56
2018-05-25T01:53:05.856Z,980.67
2018-05-25T01:54:10.755Z,980.65
2018-05-25T01:55:10.850Z,980.56
2018-05-25T01:56:05.866Z,980.65
2018-05-25T01:57:05.922Z,980.65
2018-05-25T01:58:05.466Z,980.70
2018-05-25T01:59:05.676Z,980.62
2018-05-25T02:00:05.854Z,980.53
2018-05-25T02:01:05.921Z,980.62
2018-05-25T02:02:05.123Z,980.59
2018-05-25T02:03:05.660Z,980.59
2018-05-25T02:04:06.114Z,980.53
2018-05-25T02:05:06.052Z,980.53
2018-05-25T02:06:05.665Z,980.53
2018-05-25T02:07:05.558Z,980.53
2018-05-25T02:08:05.622Z,980.56
2018-05-25T02:09:05.973Z,980.50
2018-05-25T02:10:04.970Z,980.59
2018-05-25T02:11:05.809Z,980.42
2018-05-25T02:12:05.303Z,980.50
2018-05-25T02:13:05.447Z,980.56
2018-05-25T02:14:04.966Z,980.48
2018-05-25T02:15:05.039Z,980.56
2018-05-25T02:16:06.767Z,980.36
2018-05-25T02:17:05.733Z,980.53
2018-05-25T02:18:05.534Z,980.53
2018-05-25T02:19:05.624Z,980.56
2018-05-25T02:20:05.276Z,980.42
2018-05-25T02:21:05.136Z,980.53
2018-05-25T02:22:05.118Z,980.56
2018-05-25T02:23:10.412Z,980.50
2018-05-25T02:24:05.103Z,980.53
2018-05-25T02:25:05.583Z,980.59
2018-05-25T02:26:05.338Z,980.65
2018-05-25T02:27:05.901Z,980.53
2018-05-25T02:28:05.688Z,980.56
2018-05-25T02:29:05.784Z,980.59
2018-05-25T02:30:10.852Z,980.68
2018-05-25T02:31:05.918Z,980.68
2018-05-25T02:32:05.401Z,980.53
2018-05-25T02:33:05.471Z,980.74
2018-05-25T02:34:05.765Z,980.62
2018-05-25T02:35:05.279Z,980.53
2018-05-25T02:36:05.845Z,980.59
2018-05-25T02:37:06.048Z,980.71
2018-05-25T02:38:05.017Z,980.53
2018-05-25T02:39:05.969Z,980.68
2018-05-25T02:40:06.038Z,980.50
2018-05-25T02:41:05.082Z,980.59
2018-05-25T02:42:10.945Z,980.50
2018-05-25T02:43:06.250Z,980.50
2018-05-25T02:44:05.823Z,980.53
2018-05-25T02:45:05.600Z,980.42
2018-05-25T02:46:05.667Z,980.45
2018-05-25T02:47:05.911Z,980.45
2018-05-25T02:48:05.851Z,980.33
2018-05-25T02:49:05.421Z,980.45
2018-05-25T02:50:05.293Z,980.39
2018-05-25T02:51:05.398Z,980.48
2018-05-25T02:52:05.287Z,980.50
2018-05-25T02:53:05.349Z,980.39
2018-05-25T02:54:05.863Z,980.48
2018-05-25T02:55:05.952Z,980.48
2018-05-25T02:56:05.679Z,980.56
2018-05-25T02:57:05.626Z,980.42
2018-05-25T02:58:05.179Z,980.53
2018-05-25T02:59:05.318Z,980.50
2018-05-25T03:00:05.967Z,980.42
2018-05-25T03:01:05.113Z,980.39
2018-05-25T03:02:05.666Z,980.36
2018-05-25T03:03:05.240Z,980.39
2018-05-25T03:04:05.931Z,980.50
2018-05-25T03:05:05.801Z,980.36
2018-05-25T03:06:04.993Z,980.42
2018-05-25T03:07:05.177Z,980.39
2018-05-25T03:08:05.791Z,980.45
2018-05-25T03:09:05.530Z,980.39
2018-05-25T03:10:05.313Z,980.36
2018-05-25T03:11:05.106Z,980.33
2018-05-25T03:12:05.319Z,980.33
2018-05-25T03:13:05.391Z,980.36
2018-05-25T03:14:05.251Z,980.33
2018-05-25T03:15:05.821Z,980.36
2018-05-25T03:16:05.516Z,980.36
2018-05-25T03:17:05.181Z,980.39
2018-05-25T03:18:05.904Z,980.45
2018-05-25T03:19:05.970Z,980.33
2018-05-25T03:20:06.340Z,980.33
2018-05-25T03:21:10.507Z,980.25
2018-05-25T03:22:05.446Z,980.45
2018-05-25T03:23:05.760Z,980.45
2018-05-25T03:24:05.935Z,980.33
2018-05-25T03:25:05.916Z,980.30
2018-05-25T03:26:05.820Z,980.25
2018-05-25T03:27:05.763Z,980.25
2018-05-25T03:28:09.930Z,980.28
2018-05-25T03:29:06.398Z,980.28
2018-05-25T03:30:05.252Z,980.28
2018-05-25T03:31:05.845Z,980.08
2018-05-25T03:32:05.584Z,980.17
2018-05-25T03:33:05.111Z,980.17
2018-05-25T03:34:05.289Z,980.22
2018-05-25T03:35:05.357Z,980.22
2018-05-25T03:36:05.234Z,980.31
2018-05-25T03:37:05.317Z,980.33
2018-05-25T03:38:05.351Z,980.33
2018-05-25T03:39:05.534Z,980.31
2018-05-25T03:40:10.213Z,980.33
2018-05-25T03:41:05.723Z,980.45
2018-05-25T03:42:05.618Z,980.25
2018-05-25T03:43:05.482Z,980.25
2018-05-25T03:44:05.919Z,980.33
2018-05-25T03:45:06.027Z,980.22
2018-05-25T03:46:05.490Z,980.33
2018-05-25T03:47:05.274Z,980.22
2018-05-25T03:48:05.804Z,980.25
2018-05-25T03:49:05.402Z,980.31
2018-05-25T03:50:05.840Z,980.45
2018-05-25T03:51:05.823Z,980.45
2018-05-25T03:52:05.653Z,980.45
2018-05-25T03:53:06.045Z,980.42
2018-05-25T03:54:05.205Z,980.37
2018-05-25T03:55:06.173Z,980.34
2018-05-25T03:56:06.139Z,980.37
2018-05-25T03:57:05.413Z,980.48
2018-05-25T03:58:05.901Z,980.57
2018-05-25T03:59:05.880Z,980.63
2018-05-25T04:00:05.050Z,980.42
2018-05-25T04:01:05.224Z,980.54
2018-05-25T04:02:05.072Z,980.48
2018-05-25T04:03:05.202Z,980.54
2018-05-25T04:04:05.115Z,980.42
2018-05-25T04:05:05.221Z,980.51
2018-05-25T04:06:05.046Z,980.42
2018-05-25T04:07:05.619Z,980.42
2018-05-25T04:08:05.475Z,980.48
2018-05-25T04:09:05.720Z,980.42
2018-05-25T04:10:05.469Z,980.42
2018-05-25T04:11:10.572Z,980.37
2018-05-25T04:12:05.330Z,980.39
2018-05-25T04:13:10.792Z,980.28
2018-05-25T04:14:05.806Z,980.48
2018-05-25T04:15:05.853Z,980.42
2018-05-25T04:16:05.495Z,980.45
2018-05-25T04:17:05.168Z,980.42
2018-05-25T04:18:05.421Z,980.34
2018-05-25T04:19:05.537Z,980.48
2018-05-25T04:20:05.391Z,980.65
2018-05-25T04:21:05.483Z,980.42
2018-05-25T04:22:05.448Z,980.54
2018-05-25T04:23:05.901Z,980.51
2018-05-25T04:24:05.039Z,980.59
2018-05-25T04:25:05.251Z,980.54
2018-05-25T04:26:05.675Z,980.48
2018-05-25T04:27:05.355Z,980.48
2018-05-25T04:28:05.556Z,980.54
2018-05-25T04:29:05.173Z,980.39
2018-05-25T04:30:06.103Z,980.56
2018-05-25T04:31:05.320Z,980.39
2018-05-25T04:32:05.478Z,980.56
2018-05-25T04:33:05.363Z,980.47
2018-05-25T04:34:05.166Z,980.48
2018-05-25T04:35:05.658Z,980.42
2018-05-25T04:36:05.583Z,980.56
2018-05-25T04:37:05.850Z,980.59
2018-05-25T04:38:05.664Z,980.50
2018-05-25T04:39:05.976Z,980.62
2018-05-25T04:40:05.804Z,980.62
2018-05-25T04:41:05.275Z,980.76
2018-05-25T04:42:06.214Z,980.64
2018-05-25T04:43:06.071Z,980.64
2018-05-25T04:44:05.992Z,980.76
2018-05-25T04:45:05.675Z,980.67
2018-05-25T04:46:05.637Z,980.67
2018-05-25T04:47:05.502Z,980.70
2018-05-25T04:48:05.215Z,980.64
2018-05-25T04:49:05.363Z,980.64
2018-05-25T04:50:05.242Z,980.70
2018-05-25T04:51:05.436Z,980.61
2018-05-25T04:52:05.320Z,980.84
2018-05-25T04:53:05.403Z,980.72
2018-05-25T04:54:05.871Z,980.64
2018-05-25T04:55:05.063Z,980.67
2018-05-25T04:56:05.948Z,980.72
2018-05-25T04:57:05.509Z,980.72
2018-05-25T04:58:05.375Z,980.55
2018-05-25T04:59:05.387Z,980.58
2018-05-25T05:00:05.017Z,980.63
2018-05-25T05:01:05.695Z,980.72
2018-05-25T05:02:05.788Z,980.61
2018-05-25T05:03:05.502Z,980.60
2018-05-25T05:04:05.531Z,980.72
2018-05-25T05:05:05.334Z,980.72
2018-05-25T05:06:05.203Z,980.63
2018-05-25T05:07:05.138Z,980.72
2018-05-25T05:08:05.208Z,980.75
2018-05-25T05:09:05.227Z,980.72
2018-05-25T05:10:05.494Z,980.69
2018-05-25T05:11:05.303Z,980.72
2018-05-25T05:12:05.561Z,980.66
2018-05-25T05:13:06.133Z,980.66
2018-05-25T05:14:05.907Z,980.83
2018-05-25T05:15:05.650Z,980.71
2018-05-25T05:16:05.325Z,980.60
2018-05-25T05:17:05.135Z,980.68
2018-05-25T05:18:05.256Z,980.57
2018-05-25T05:19:06.206Z,980.71
2018-05-25T05:20:05.151Z,980.65
2018-05-25T05:21:06.295Z,980.80
2018-05-25T05:22:10.573Z,980.71
2018-05-25T05:23:05.528Z,980.71
2018-05-25T05:24:05.499Z,980.71
2018-05-25T05:25:05.077Z,980.77
2018-05-25T05:26:05.047Z,980.62
2018-05-25T05:27:05.829Z,980.68
2018-05-25T05:28:04.973Z,980.68
2018-05-25T05:29:06.138Z,980.65
2018-05-25T05:30:05.582Z,980.59
2018-05-25T05:31:05.822Z,980.70
2018-05-25T05:32:08.772Z,980.61
2018-05-25T05:33:05.727Z,980.73
2018-05-25T05:34:05.841Z,980.81
2018-05-25T05:35:05.569Z,980.78
2018-05-25T05:36:05.332Z,980.72
2018-05-25T05:37:05.593Z,980.72
2018-05-25T05:38:05.108Z,980.69
2018-05-25T05:39:05.241Z,980.58
2018-05-25T05:40:05.874Z,980.52
2018-05-25T05:41:06.000Z,980.55
2018-05-25T05:42:06.000Z,980.63
2018-05-25T05:43:06.032Z,980.63
2018-05-25T05:44:05.859Z,980.69
2018-05-25T05:45:05.855Z,980.69
2018-05-25T05:46:05.760Z,980.60
2018-05-25T05:47:05.237Z,980.63
2018-05-25T05:48:05.200Z,980.80
2018-05-25T05:49:05.685Z,980.74
2018-05-25T05:50:05.336Z,980.71
2018-05-25T05:51:05.868Z,980.67
2018-05-25T05:52:05.197Z,980.64
2018-05-25T05:53:05.643Z,980.72
2018-05-25T05:54:05.618Z,980.68
2018-05-25T05:55:05.861Z,980.82
2018-05-25T05:56:05.440Z,980.72
2018-05-25T05:57:05.770Z,980.63
2018-05-25T05:58:05.702Z,980.68
2018-05-25T05:59:05.510Z,980.82
2018-05-25T06:00:05.413Z,980.73
2018-05-25T06:01:05.175Z,980.67
2018-05-25T06:02:05.234Z,980.61
2018-05-25T06:03:05.874Z,980.55
2018-05-25T06:04:05.978Z,980.81
2018-05-25T06:05:05.951Z,980.66
2018-05-25T06:06:05.660Z,980.81
2018-05-25T06:07:05.835Z,980.78
2018-05-25T06:08:05.648Z,980.75
2018-05-25T06:09:05.501Z,980.78
2018-05-25T06:10:05.035Z,980.81
2018-05-25T06:11:05.158Z,980.75
2018-05-25T06:12:05.130Z,980.70
2018-05-25T06:13:05.982Z,980.84
2018-05-25T06:14:05.416Z,980.70
2018-05-25T06:15:06.081Z,980.70
2018-05-25T06:16:05.953Z,980.81
2018-05-25T06:17:05.848Z,980.82
2018-05-25T06:18:05.902Z,980.76
2018-05-25T06:19:05.125Z,980.64
2018-05-25T06:20:05.496Z,980.90
2018-05-25T06:21:05.224Z,980.76
2018-05-25T06:22:05.879Z,980.93
2018-05-25T06:23:05.185Z,980.81
2018-05-25T06:24:05.587Z,980.90
2018-05-25T06:25:05.585Z,980.90
2018-05-25T06:26:05.840Z,980.84
2018-05-25T06:27:05.673Z,980.75
2018-05-25T06:28:05.811Z,980.75
2018-05-25T06:29:06.962Z,980.78
2018-05-25T06:30:05.896Z,980.81
2018-05-25T06:31:05.005Z,980.72
2018-05-25T06:32:05.925Z,980.81
2018-05-25T06:33:05.551Z,980.81
2018-05-25T06:34:05.285Z,980.78
2018-05-25T06:35:05.488Z,980.83
2018-05-25T06:36:05.434Z,980.92
2018-05-25T06:37:05.887Z,980.83
2018-05-25T06:38:05.581Z,980.86
2018-05-25T06:39:05.691Z,980.77
2018-05-25T06:40:05.336Z,980.91
2018-05-25T06:41:05.161Z,980.77
2018-05-25T06:42:05.279Z,980.88
2018-05-25T06:43:06.199Z,980.85
2018-05-25T06:44:10.171Z,980.84
2018-05-25T06:45:05.537Z,980.95
2018-05-25T06:46:05.990Z,980.80
2018-05-25T06:47:05.101Z,980.95
2018-05-25T06:48:07.195Z,980.83
2018-05-25T06:49:05.938Z,980.86
2018-05-25T06:50:06.022Z,980.77
2018-05-25T06:51:06.154Z,980.76
2018-05-25T06:52:06.165Z,980.99
2018-05-25T06:53:05.645Z,980.90
2018-05-25T06:54:05.850Z,980.84
2018-05-25T06:55:06.037Z,980.95
2018-05-25T06:56:05.127Z,980.89
2018-05-25T06:57:05.880Z,981.03
2018-05-25T06:58:05.886Z,980.94
2018-05-25T06:59:05.414Z,980.94
2018-05-25T07:00:05.769Z,981.09
2018-05-25T07:01:05.467Z,980.94
2018-05-25T07:02:06.385Z,980.94
2018-05-25T07:03:05.292Z,980.98
2018-05-25T07:04:06.111Z,980.98
2018-05-25T07:05:05.078Z,980.89
2018-05-25T07:06:05.202Z,980.95
2018-05-25T07:07:05.109Z,980.92
2018-05-25T07:08:05.262Z,981.01
2018-05-25T07:09:06.073Z,981.10
2018-05-25T07:10:06.427Z,980.93
2018-05-25T07:11:05.438Z,981.13
2018-05-25T07:12:06.598Z,980.99
2018-05-25T07:13:05.701Z,981.13
2018-05-25T07:14:05.089Z,981.13
2018-05-25T07:15:05.080Z,981.11
2018-05-25T07:16:05.101Z,981.14
2018-05-25T07:17:06.183Z,981.19
2018-05-25T07:18:06.009Z,981.14
2018-05-25T07:19:05.972Z,981.08
2018-05-25T07:20:05.567Z,981.17
2018-05-25T07:21:05.485Z,981.14
2018-05-25T07:22:05.151Z,980.99
2018-05-25T07:23:05.805Z,981.11
2018-05-25T07:24:05.610Z,981.14
2018-05-25T07:25:05.085Z,981.17
2018-05-25T07:26:05.781Z,981.11
2018-05-25T07:27:05.816Z,981.14
2018-05-25T07:28:06.441Z,981.08
2018-05-25T07:29:06.504Z,981.20
2018-05-25T07:30:05.398Z,981.20
2018-05-25T07:31:05.556Z,981.17
2018-05-25T07:32:05.888Z,981.11
2018-05-25T07:33:05.809Z,981.05
2018-05-25T07:34:05.397Z,981.17
2018-05-25T07:35:05.943Z,981.08
2018-05-25T07:36:05.974Z,981.11
2018-05-25T07:37:05.888Z,981.11
2018-05-25T07:38:05.720Z,981.17
2018-05-25T07:39:05.620Z,981.23
2018-05-25T07:40:05.558Z,981.23
2018-05-25T07:41:05.200Z,981.14
2018-05-25T07:42:05.319Z,981.23
2018-05-25T07:43:05.212Z,981.26
2018-05-25T07:44:05.188Z,981.11
2018-05-25T07:45:05.020Z,981.23
2018-05-25T07:46:05.112Z,981.20
2018-05-25T07:47:05.497Z,981.32
2018-05-25T07:48:06.252Z,981.29
2018-05-25T07:49:05.424Z,981.26
2018-05-25T07:50:05.351Z,981.23
2018-05-25T07:51:05.755Z,981.32
2018-05-25T07:52:05.079Z,981.35
2018-05-25T07:53:05.274Z,981.29
2018-05-25T07:54:05.949Z,981.29
2018-05-25T07:55:06.032Z,981.32
2018-05-25T07:56:05.526Z,981.35
2018-05-25T07:57:05.704Z,981.17
2018-05-25T07:58:05.288Z,981.11
2018-05-25T07:59:05.514Z,981.32
2018-05-25T08:00:05.494Z,981.40
2018-05-25T08:01:05.769Z,981.20
2018-05-25T08:02:06.891Z,981.26
2018-05-25T08:03:05.139Z,981.23
2018-05-25T08:04:05.836Z,981.31
2018-05-25T08:05:05.534Z,981.23
2018-05-25T08:06:05.215Z,981.31
2018-05-25T08:07:05.226Z,981.31
2018-05-25T08:08:05.248Z,981.31
2018-05-25T08:09:05.859Z,981.29
2018-05-25T08:10:05.699Z,981.23
2018-05-25T08:11:05.819Z,981.26
2018-05-25T08:12:05.189Z,981.29
2018-05-25T08:13:05.616Z,981.17
2018-05-25T08:14:05.624Z,981.32
2018-05-25T08:15:05.388Z,981.26
2018-05-25T08:16:05.289Z,981.40
2018-05-25T08:17:05.285Z,981.20
2018-05-25T08:18:05.935Z,981.40
2018-05-25T08:19:05.024Z,981.43
2018-05-25T08:20:05.663Z,981.35
2018-05-25T08:21:05.839Z,981.29
2018-05-25T08:22:05.315Z,981.32
2018-05-25T08:23:05.701Z,981.35
2018-05-25T08:24:05.484Z,981.41
2018-05-25T08:25:05.278Z,981.38
2018-05-25T08:26:06.191Z,981.44
2018-05-25T08:27:05.915Z,981.32
2018-05-25T08:28:05.702Z,981.26
2018-05-25T08:29:05.820Z,981.29
2018-05-25T08:30:05.822Z,981.38
2018-05-25T08:31:05.634Z,981.46
2018-05-25T08:32:05.356Z,981.35
2018-05-25T08:33:05.040Z,981.43
2018-05-25T08:34:05.421Z,981.35
2018-05-25T08:35:05.715Z,981.46
2018-05-25T08:36:05.582Z,981.32
2018-05-25T08:37:05.395Z,981.34
2018-05-25T08:38:05.547Z,981.49
2018-05-25T08:39:05.860Z,981.34
2018-05-25T08:40:05.616Z,981.43
2018-05-25T08:41:05.004Z,981.37
2018-05-25T08:42:05.333Z,981.48
2018-05-25T08:43:10.028Z,981.37
2018-05-25T08:44:06.326Z,981.31
2018-05-25T08:45:05.084Z,981.37
2018-05-25T08:46:05.589Z,981.31
2018-05-25T08:47:05.205Z,981.45
2018-05-25T08:48:05.946Z,981.19
2018-05-25T08:49:05.830Z,981.22
2018-05-25T08:50:06.053Z,981.18
2018-05-25T08:51:06.189Z,981.16
2018-05-25T08:52:06.268Z,981.30
2018-05-25T08:53:05.713Z,981.27
2018-05-25T08:54:05.614Z,981.27
2018-05-25T08:55:05.717Z,981.15
2018-05-25T08:56:05.468Z,981.15
2018-05-25T08:57:05.842Z,981.12
2018-05-25T08:58:05.919Z,981.17
2018-05-25T08:59:05.414Z,981.23
2018-05-25T09:00:05.435Z,981.08
2018-05-25T09:01:05.226Z,981.14
2018-05-25T09:02:05.281Z,981.22
2018-05-25T09:03:05.916Z,981.25
2018-05-25T09:04:05.703Z,981.22
2018-05-25T09:05:05.080Z,981.19
2018-05-25T09:06:05.147Z,981.19
2018-05-25T09:07:05.824Z,981.30
2018-05-25T09:08:06.160Z,981.36
2018-05-25T09:09:05.088Z,981.36
2018-05-25T09:10:05.540Z,981.39
2018-05-25T09:11:05.065Z,981.30
2018-05-25T09:12:05.587Z,981.39
2018-05-25T09:13:05.336Z,981.36
2018-05-25T09:14:05.781Z,981.41
2018-05-25T09:15:10.368Z,981.47
2018-05-25T09:16:05.744Z,981.47
2018-05-25T09:17:05.843Z,981.44
2018-05-25T09:18:05.660Z,981.41
2018-05-25T09:19:05.310Z,981.41
2018-05-25T09:20:05.713Z,981.47
2018-05-25T09:21:05.473Z,981.49
2018-05-25T09:22:05.873Z,981.41
2018-05-25T09:23:05.482Z,981.46
2018-05-25T09:24:05.715Z,981.46
2018-05-25T09:25:05.858Z,981.60
2018-05-25T09:26:05.974Z,981.35
2018-05-25T09:27:05.687Z,981.40
2018-05-25T09:28:05.487Z,981.52
2018-05-25T09:29:05.319Z,981.43
2018-05-25T09:30:05.453Z,981.43
2018-05-25T09:31:05.297Z,981.55
2018-05-25T09:32:05.272Z,981.49
2018-05-25T09:33:05.012Z,981.49
2018-05-25T09:34:05.729Z,981.43
2018-05-25T09:35:05.804Z,981.49
2018-05-25T09:36:05.362Z,981.60
2018-05-25T09:37:05.217Z,981.52
2018-05-25T09:38:05.880Z,981.52
2018-05-25T09:39:05.948Z,981.52
2018-05-25T09:40:06.230Z,981.46
2018-05-25T09:41:05.433Z,981.57
2018-05-25T09:42:05.561Z,981.57
2018-05-25T09:43:05.067Z,981.49
2018-05-25T09:44:05.332Z,981.46
2018-05-25T09:45:05.221Z,981.49
2018-05-25T09:46:05.025Z,981.49
2018-05-25T09:47:06.105Z,981.43
2018-05-25T09:48:05.667Z,981.46
2018-05-25T09:49:05.897Z,981.52
2018-05-25T09:50:05.928Z,981.43
2018-05-25T09:51:05.706Z,981.52
2018-05-25T09:52:05.528Z,981.46
2018-05-25T09:53:05.014Z,981.49
2018-05-25T09:54:05.107Z,981.52
2018-05-25T09:55:04.962Z,981.46
2018-05-25T09:56:06.376Z,981.40
2018-05-25T09:57:06.055Z,981.56
2018-05-25T09:58:05.217Z,981.51
2018-05-25T09:59:05.770Z,981.43
2018-05-25T10:00:05.761Z,981.51
2018-05-25T10:01:05.007Z,981.54
2018-05-25T10:02:05.609Z,981.59
2018-05-25T10:03:05.399Z,981.59
2018-05-25T10:04:05.536Z,981.51
2018-05-25T10:05:04.979Z,981.54
2018-05-25T10:06:05.646Z,981.64
2018-05-25T10:07:05.479Z,981.50
2018-05-25T10:08:05.937Z,981.50
2018-05-25T10:09:05.705Z,981.42
2018-05-25T10:10:05.919Z,981.53
2018-05-25T10:11:05.828Z,981.50
2018-05-25T10:12:05.687Z,981.38
2018-05-25T10:13:05.796Z,981.36
2018-05-25T10:14:05.609Z,981.56
2018-05-25T10:15:05.549Z,981.38
2018-05-25T10:16:05.945Z,981.50
2018-05-25T10:17:05.840Z,981.47
2018-05-25T10:18:05.896Z,981.50
2018-05-25T10:19:05.716Z,981.53
2018-05-25T10:20:05.553Z,981.35
2018-05-25T10:21:05.320Z,981.52
2018-05-25T10:22:05.827Z,981.52
2018-05-25T10:23:06.133Z,981.46
2018-05-25T10:24:05.119Z,981.52
2018-05-25T10:25:06.107Z,981.66
2018-05-25T10:26:05.632Z,981.34
2018-05-25T10:27:10.319Z,981.52
2018-05-25T10:28:05.603Z,981.46
2018-05-25T10:29:05.981Z,981.46
2018-05-25T10:30:05.145Z,981.46
2018-05-25T10:31:05.815Z,981.37
2018-05-25T10:32:05.681Z,981.40
2018-05-25T10:33:06.421Z,981.37
2018-05-25T10:34:05.154Z,981.40
2018-05-25T10:35:05.285Z,981.55
2018-05-25T10:36:05.863Z,981.55
2018-05-25T10:37:05.097Z,981.38
2018-05-25T10:38:05.666Z,981.41
2018-05-25T10:39:05.230Z,981.46
2018-05-25T10:40:05.419Z,981.47
2018-05-25T10:41:05.409Z,981.44
2018-05-25T10:42:05.183Z,981.44
2018-05-25T10:43:05.182Z,981.47
2018-05-25T10:44:05.230Z,981.38
2018-05-25T10:45:04.984Z,981.50
2018-05-25T10:46:06.633Z,981.38
2018-05-25T10:47:05.895Z,981.47
2018-05-25T10:48:06.026Z,981.41
2018-05-25T10:49:05.201Z,981.44
2018-05-25T10:50:05.960Z,981.57
2018-05-25T10:51:05.479Z,981.57
2018-05-25T10:52:05.666Z,981.52
2018-05-25T10:53:05.196Z,981.43
2018-05-25T10:54:05.058Z,981.60
2018-05-25T10:55:05.733Z,981.46
2018-05-25T10:56:04.987Z,981.49
2018-05-25T10:57:05.108Z,981.46
2018-05-25T10:58:05.271Z,981.46
2018-05-25T10:59:05.955Z,981.43
2018-05-25T11:00:05.887Z,981.40
2018-05-25T11:01:05.461Z,981.46
2018-05-25T11:02:06.352Z,981.55
2018-05-25T11:03:06.606Z,981.55
2018-05-25T11:04:05.149Z,981.46
2018-05-25T11:05:05.889Z,981.34
2018-05-25T11:06:05.539Z,981.52
2018-05-25T11:07:05.523Z,981.43
2018-05-25T11:08:05.580Z,981.46
2018-05-25T11:09:05.387Z,981.43
2018-05-25T11:10:06.155Z,981.46
2018-05-25T11:11:05.904Z,981.43
2018-05-25T11:12:06.361Z,981.43
2018-05-25T11:13:06.125Z,981.40
2018-05-25T11:14:05.592Z,981.46
2018-05-25T11:15:05.336Z,981.43
2018-05-25T11:16:05.752Z,981.31
2018-05-25T11:17:05.895Z,981.40
2018-05-25T11:18:05.887Z,981.37
2018-05-25T11:19:05.641Z,981.25
2018-05-25T11:20:05.698Z,981.43
2018-05-25T11:21:05.847Z,981.31
2018-05-25T11:22:05.724Z,981.40
2018-05-25T11:23:10.472Z,981.34
2018-05-25T11:24:05.214Z,981.39
2018-05-25T11:25:05.424Z,981.48
2018-05-25T11:26:05.398Z,981.48
2018-05-25T11:27:06.110Z,981.30
2018-05-25T11:28:06.344Z,981.42
2018-05-25T11:29:05.361Z,981.39
2018-05-25T11:30:05.287Z,981.27
2018-05-25T11:31:05.297Z,981.42
2018-05-25T11:32:05.453Z,981.39
2018-05-25T11:33:05.738Z,981.36
2018-05-25T11:34:05.740Z,981.42
2018-05-25T11:35:05.219Z,981.36
2018-05-25T11:36:05.933Z,981.42
2018-05-25T11:37:05.044Z,981.33
2018-05-25T11:38:05.722Z,981.36
2018-05-25T11:39:05.775Z,981.33
2018-05-25T11:40:05.591Z,981.30
2018-05-25T11:41:05.155Z,981.33
2018-05-25T11:42:05.945Z,981.18
2018-05-25T11:43:05.161Z,981.27
2018-05-25T11:44:05.163Z,981.33
2018-05-25T11:45:05.170Z,981.27
2018-05-25T11:46:05.277Z,981.33
2018-05-25T11:47:05.433Z,981.21
2018-05-25T11:48:05.282Z,981.24
2018-05-25T11:49:05.458Z,981.30
2018-05-25T11:50:05.629Z,981.42
2018-05-25T11:51:05.559Z,981.45
2018-05-25T11:52:05.043Z,981.27
2018-05-25T11:53:05.896Z,981.30
2018-05-25T11:54:10.603Z,981.39
2018-05-25T11:55:05.482Z,981.36
2018-05-25T11:56:05.481Z,981.33
2018-05-25T11:57:05.220Z,981.45
2018-05-25T11:58:05.347Z,981.33
2018-05-25T11:59:05.608Z,981.45
2018-05-25T12:00:05.111Z,981.36
2018-05-25T12:01:05.215Z,981.25
2018-05-25T12:02:05.189Z,981.33
2018-05-25T12:03:05.737Z,981.36
2018-05-25T12:04:05.348Z,981.33
2018-05-25T12:05:05.110Z,981.45
2018-05-25T12:06:05.712Z,981.42
2018-05-25T12:07:05.868Z,981.39
2018-05-25T12:08:05.599Z,981.22
2018-05-25T12:09:05.422Z,981.28
2018-05-25T12:10:05.678Z,981.28
2018-05-25T12:11:05.923Z,981.36
2018-05-25T12:12:05.966Z,981.31
2018-05-25T12:13:05.970Z,981.39
2018-05-25T12:14:05.519Z,981.33
2018-05-25T12:15:05.950Z,981.31
2018-05-25T12:16:05.629Z,981.33
2018-05-25T12:17:05.336Z,981.30
2018-05-25T12:18:05.507Z,981.30
2018-05-25T12:19:05.870Z,981.42
2018-05-25T12:20:05.725Z,981.42
2018-05-25T12:21:05.299Z,981.33
2018-05-25T12:22:05.778Z,981.39
2018-05-25T12:23:06.023Z,981.39
2018-05-25T12:24:05.361Z,981.33
2018-05-25T12:25:05.583Z,981.24
2018-05-25T12:26:05.557Z,981.19
2018-05-25T12:27:05.660Z,981.21
2018-05-25T12:28:05.667Z,981.30